createdAt,value
2018-03-23T00:00:55.651Z,0.00
2018-03-23T00:01:55.514Z,0.00
2018-03-23T00:02:55.380Z,0.00
2018-03-23T00:03:55.244Z,0.00
2018-03-23T00:04:55.110Z,0.00
2018-03-23T00:05:54.974Z,0.00
2018-03-23T00:06:54.849Z,0.00
2018-03-23T00:07:54.706Z,0.00
2018-03-23T00:08:54.572Z,0.00
2018-03-23T00:09:54.435Z,0.00
2018-03-23T00:10:54.300Z,0.00
2018-03-23T00:11:54.167Z,0.00
2018-03-23T00:12:54.034Z,0.00
2018-03-23T00:13:53.897Z,0.00
2018-03-23T00:14:53.763Z,0.00
2018-03-23T00:15:53.627Z,0.00
2018-03-23T00:16:53.496Z,0.00
2018-03-23T00:17:53.358Z,0.00
2018-03-23T00:18:53.226Z,0.00
2018-03-23T00:19:53.090Z,0.00
2018-03-23T00:20:52.958Z,0.00
2018-03-23T00:21:52.819Z,0.00
2018-03-23T00:22:52.684Z,0.00
2018-03-23T00:23:52.550Z,0.00
2018-03-23T00:24:52.414Z,0.00
2018-03-23T00:25:52.280Z,0.00
2018-03-23T00:26:52.146Z,0.00
2018-03-23T00:27:52.011Z,0.00
2018-03-23T00:28:51.876Z,0.00
2018-03-23T00:29:51.741Z,0.00
2018-03-23T00:30:51.606Z,0.00
2018-03-23T00:31:51.472Z,0.00
2018-03-23T00:32:51.338Z,0.00
2018-03-23T00:33:51.202Z,0.00
2018-03-23T00:34:51.067Z,0.00
2018-03-23T00:35:50.933Z,0.00
2018-03-23T00:36:50.798Z,0.00
2018-03-23T00:37:50.662Z,0.00
2018-03-23T00:38:50.530Z,0.00
2018-03-23T00:39:50.394Z,0.00
2018-03-23T00:40:50.259Z,0.00
2018-03-23T00:41:50.125Z,0.00
2018-03-23T00:42:50.001Z,0.00
2018-03-23T00:43:49.854Z,0.00
2018-03-23T00:44:49.719Z,0.00
2018-03-23T00:45:49.587Z,0.00
2018-03-23T00:46:49.451Z,0.00
2018-03-23T00:47:49.315Z,0.00
2018-03-23T00:48:49.182Z,0.00
2018-03-23T00:49:49.044Z,0.00
2018-03-23T00:50:48.925Z,0.00
2018-03-23T00:51:48.773Z,0.00
2018-03-23T00:52:48.642Z,0.00
2018-03-23T00:53:48.506Z,0.00
2018-03-23T00:54:48.372Z,0.00
2018-03-23T00:55:48.233Z,0.00
2018-03-23T00:56:48.103Z,0.00
2018-03-23T00:57:47.966Z,0.00
2018-03-23T00:58:47.836Z,0.00
2018-03-23T00:59:47.699Z,0.00
2018-03-23T01:00:47.563Z,0.00
2018-03-23T01:01:47.428Z,0.00
2018-03-23T01:02:47.292Z,0.00
2018-03-23T01:03:47.157Z,0.00
2018-03-23T01:04:47.021Z,0.00
2018-03-23T01:05:46.886Z,0.00
2018-03-23T01:06:46.758Z,0.00
2018-03-23T01:07:46.617Z,0.00
2018-03-23T01:08:46.483Z,0.00
2018-03-23T01:09:46.348Z,0.00
2018-03-23T01:10:46.212Z,0.00
2018-03-23T01:11:46.080Z,0.00
2018-03-23T01:12:45.947Z,0.00
2018-03-23T01:13:45.812Z,0.00
2018-03-23T01:14:45.676Z,0.00
2018-03-23T01:15:45.541Z,0.00
2018-03-23T01:16:45.403Z,0.00
2018-03-23T01:17:45.267Z,0.00
2018-03-23T01:18:45.136Z,0.00
2018-03-23T01:19:44.997Z,0.00
2018-03-23T01:20:44.866Z,0.00
2018-03-23T01:21:44.739Z,0.00
2018-03-23T01:22:44.593Z,0.00
2018-03-23T01:23:44.459Z,0.00
2018-03-23T01:24:44.334Z,0.00
2018-03-23T01:25:44.189Z,0.00
2018-03-23T01:26:44.054Z,0.00
2018-03-23T01:27:43.919Z,0.00
2018-03-23T01:28:43.786Z,0.00
2018-03-23T01:29:43.655Z,0.00
2018-03-23T01:30:43.515Z,0.00
2018-03-23T01:31:43.380Z,0.00
2018-03-23T01:32:43.246Z,0.00
2018-03-23T01:33:43.111Z,0.00
2018-03-23T01:34:42.974Z,0.00
2018-03-23T01:35:42.841Z,0.00
2018-03-23T01:36:42.707Z,0.00
2018-03-23T01:37:42.571Z,0.00
2018-03-23T01:38:42.437Z,0.00
2018-03-23T01:39:42.307Z,0.00
2018-03-23T01:40:42.164Z,0.00
2018-03-23T01:41:42.030Z,0.00
2018-03-23T01:42:41.895Z,0.00
2018-03-23T01:43:41.763Z,0.00
2018-03-23T01:44:41.626Z,0.00
2018-03-23T01:45:41.490Z,0.00
2018-03-23T01:46:41.358Z,0.00
2018-03-23T01:47:41.223Z,0.00
2018-03-23T01:48:41.085Z,0.00
2018-03-23T01:49:40.950Z,0.00
2018-03-23T01:50:40.814Z,0.00
2018-03-23T01:51:40.682Z,0.00
2018-03-23T01:52:40.553Z,0.00
2018-03-23T01:53:40.409Z,0.00
2018-03-23T01:54:40.276Z,0.00
2018-03-23T01:55:40.146Z,0.00
2018-03-23T01:56:40.008Z,0.00
2018-03-23T01:57:39.907Z,0.00
2018-03-23T01:58:39.738Z,0.00
2018-03-23T01:59:39.605Z,0.00
2018-03-23T02:00:39.469Z,0.00
2018-03-23T02:01:39.333Z,0.00
2018-03-23T02:02:39.196Z,0.00
2018-03-23T02:03:39.065Z,0.00
2018-03-23T02:04:38.928Z,0.00
2018-03-23T02:05:38.794Z,0.00
2018-03-23T02:06:38.659Z,0.00
2018-03-23T02:07:38.526Z,0.00
2018-03-23T02:08:38.389Z,0.00
2018-03-23T02:09:38.253Z,0.00
2018-03-23T02:10:38.119Z,0.00
2018-03-23T02:11:37.984Z,0.00
2018-03-23T02:12:37.850Z,0.00
2018-03-23T02:13:37.716Z,0.00
2018-03-23T02:14:37.583Z,0.00
2018-03-23T02:15:37.448Z,0.00
2018-03-23T02:16:37.312Z,0.00
2018-03-23T02:17:37.177Z,0.00
2018-03-23T02:18:37.044Z,0.00
2018-03-23T02:19:36.909Z,0.00
2018-03-23T02:20:36.775Z,0.00
2018-03-23T02:21:36.651Z,0.00
2018-03-23T02:22:36.506Z,0.00
2018-03-23T02:23:36.370Z,0.00
2018-03-23T02:24:36.235Z,0.00
2018-03-23T02:25:36.100Z,0.00
2018-03-23T02:26:35.968Z,0.00
2018-03-23T02:27:35.834Z,0.00
2018-03-23T02:28:35.700Z,0.00
2018-03-23T02:29:35.568Z,0.00
2018-03-23T02:30:35.432Z,0.00
2018-03-23T02:31:35.298Z,0.00
2018-03-23T02:32:35.163Z,0.00
2018-03-23T02:33:35.029Z,0.00
2018-03-23T02:34:34.892Z,0.00
2018-03-23T02:35:34.758Z,0.00
2018-03-23T02:36:34.622Z,0.00
2018-03-23T02:37:34.487Z,0.00
2018-03-23T02:38:34.354Z,0.00
2018-03-23T02:39:34.222Z,0.00
2018-03-23T02:40:34.087Z,0.00
2018-03-23T02:41:33.951Z,0.00
2018-03-23T02:42:33.818Z,0.00
2018-03-23T02:43:33.681Z,0.00
2018-03-23T02:44:33.545Z,0.00
2018-03-23T02:45:33.411Z,0.00
2018-03-23T02:46:33.273Z,0.00
2018-03-23T02:47:33.144Z,0.00
2018-03-23T02:48:33.007Z,0.00
2018-03-23T02:49:32.873Z,0.00
2018-03-23T02:50:32.737Z,0.00
2018-03-23T02:51:32.601Z,0.00
2018-03-23T02:52:32.470Z,0.00
2018-03-23T02:53:32.340Z,0.00
2018-03-23T02:54:32.211Z,0.00
2018-03-23T02:55:32.062Z,0.00
2018-03-23T02:56:31.929Z,0.00
2018-03-23T02:57:31.792Z,0.00
2018-03-23T02:58:31.658Z,0.00
2018-03-23T02:59:31.525Z,0.00
2018-03-23T03:00:31.389Z,0.00
2018-03-23T03:01:31.255Z,0.00
2018-03-23T03:02:31.121Z,0.00
2018-03-23T03:03:30.992Z,0.00
2018-03-23T03:04:30.850Z,0.00
2018-03-23T03:05:30.712Z,0.00
2018-03-23T03:06:30.578Z,0.00
2018-03-23T03:07:30.453Z,0.00
2018-03-23T03:08:30.310Z,0.00
2018-03-23T03:09:30.174Z,0.00
2018-03-23T03:10:30.038Z,0.00
2018-03-23T03:11:29.906Z,0.00
2018-03-23T03:12:29.769Z,0.00
2018-03-23T03:13:29.632Z,0.00
2018-03-23T03:14:29.497Z,0.00
2018-03-23T03:15:29.365Z,0.00
2018-03-23T03:16:29.232Z,0.00
2018-03-23T03:17:29.091Z,0.00
2018-03-23T03:18:28.959Z,0.00
2018-03-23T03:19:28.822Z,0.00
2018-03-23T03:20:28.691Z,0.00
2018-03-23T03:21:28.554Z,0.00
2018-03-23T03:22:28.422Z,0.00
2018-03-23T03:23:28.284Z,0.00
2018-03-23T03:24:28.152Z,0.00
2018-03-23T03:25:28.018Z,0.00
2018-03-23T03:26:27.880Z,0.00
2018-03-23T03:27:27.743Z,0.00
2018-03-23T03:28:27.611Z,0.00
2018-03-23T03:29:27.474Z,0.00
2018-03-23T03:30:27.341Z,0.00
2018-03-23T03:31:27.206Z,0.00
2018-03-23T03:32:27.071Z,0.00
2018-03-23T03:33:26.934Z,0.00
2018-03-23T03:34:26.803Z,0.00
2018-03-23T03:35:26.674Z,0.00
2018-03-23T03:36:26.530Z,0.00
2018-03-23T03:37:26.396Z,0.00
2018-03-23T03:38:26.263Z,0.00
2018-03-23T03:39:26.128Z,0.00
2018-03-23T03:40:25.995Z,0.00
2018-03-23T03:41:25.861Z,0.00
2018-03-23T03:42:25.725Z,0.00
2018-03-23T03:43:25.590Z,0.00
2018-03-23T03:44:25.457Z,0.00
2018-03-23T03:45:25.321Z,0.00
2018-03-23T03:46:25.184Z,0.00
2018-03-23T03:47:25.050Z,0.00
2018-03-23T03:48:24.923Z,0.00
2018-03-23T03:49:24.779Z,0.00
2018-03-23T03:50:24.644Z,0.00
2018-03-23T03:51:24.514Z,0.00
2018-03-23T03:52:24.376Z,0.00
2018-03-23T03:53:24.241Z,0.00
2018-03-23T03:54:24.107Z,0.00
2018-03-23T03:55:23.969Z,0.00
2018-03-23T03:56:23.836Z,0.00
2018-03-23T03:57:23.702Z,0.00
2018-03-23T03:58:23.566Z,0.00
2018-03-23T03:59:23.432Z,0.00
2018-03-23T04:00:23.297Z,0.00
2018-03-23T04:01:23.164Z,0.00
2018-03-23T04:02:23.028Z,0.00
2018-03-23T04:03:22.899Z,0.00
2018-03-23T04:04:22.771Z,0.00
2018-03-23T04:05:22.623Z,0.00
2018-03-23T04:06:22.490Z,0.00
2018-03-23T04:07:22.353Z,0.00
2018-03-23T04:08:22.219Z,0.00
2018-03-23T04:09:22.087Z,0.00
2018-03-23T04:10:21.950Z,0.00
2018-03-23T04:11:21.815Z,0.00
2018-03-23T04:12:21.682Z,0.00
2018-03-23T04:13:21.544Z,0.00
2018-03-23T04:14:21.411Z,0.00
2018-03-23T04:15:21.276Z,0.00
2018-03-23T04:16:21.141Z,0.00
2018-03-23T04:17:21.008Z,0.00
2018-03-23T04:18:20.873Z,0.00
2018-03-23T04:19:20.736Z,0.00
2018-03-23T04:20:20.603Z,0.00
2018-03-23T04:21:20.465Z,0.00
2018-03-23T04:22:20.336Z,0.00
2018-03-23T04:23:20.200Z,0.00
2018-03-23T04:24:20.065Z,0.00
2018-03-23T04:25:19.930Z,0.00
2018-03-23T04:26:19.800Z,0.00
2018-03-23T04:27:19.661Z,0.00
2018-03-23T04:28:19.542Z,0.00
2018-03-23T04:29:19.391Z,0.00
2018-03-23T04:30:19.258Z,0.00
2018-03-23T04:31:19.126Z,0.00
2018-03-23T04:32:18.988Z,0.00
2018-03-23T04:33:18.853Z,0.00
2018-03-23T04:34:18.723Z,0.00
2018-03-23T04:35:18.584Z,0.00
2018-03-23T04:36:18.450Z,0.00
2018-03-23T04:37:18.317Z,0.00
2018-03-23T04:38:18.183Z,0.00
2018-03-23T04:39:18.045Z,0.00
2018-03-23T04:40:17.928Z,0.00
2018-03-23T04:41:17.776Z,0.00
2018-03-23T04:42:17.642Z,0.00
2018-03-23T04:43:17.508Z,0.00
2018-03-23T04:44:17.375Z,0.00
2018-03-23T04:45:17.237Z,0.00
2018-03-23T04:46:17.101Z,0.00
2018-03-23T04:47:16.968Z,0.00
2018-03-23T04:48:16.835Z,0.00
2018-03-23T04:49:16.700Z,0.00
2018-03-23T04:50:16.567Z,0.00
2018-03-23T04:51:16.430Z,0.00
2018-03-23T04:52:16.296Z,0.00
2018-03-23T04:53:16.161Z,0.00
2018-03-23T04:54:16.027Z,0.00
2018-03-23T04:55:15.890Z,0.00
2018-03-23T04:56:15.756Z,0.00
2018-03-23T04:57:15.621Z,0.00
2018-03-23T04:58:15.498Z,0.00
2018-03-23T04:59:15.412Z,0.00
2018-03-23T05:00:15.220Z,0.00
2018-03-23T05:01:15.092Z,0.00
2018-03-23T05:02:14.948Z,0.00
2018-03-23T05:03:14.810Z,0.00
2018-03-23T05:04:14.681Z,0.00
2018-03-23T05:05:14.547Z,0.00
2018-03-23T05:06:14.410Z,0.00
2018-03-23T05:07:14.275Z,0.00
2018-03-23T05:08:14.138Z,0.00
2018-03-23T05:09:14.011Z,0.00
2018-03-23T05:10:13.868Z,0.00
2018-03-23T05:11:13.735Z,0.00
2018-03-23T05:12:13.598Z,0.00
2018-03-23T05:13:13.465Z,0.00
2018-03-23T05:14:13.333Z,0.00
2018-03-23T05:15:13.198Z,0.00
2018-03-23T05:16:13.140Z,0.00
2018-03-23T05:17:12.927Z,0.00
2018-03-23T05:18:12.791Z,0.00
2018-03-23T05:19:12.662Z,0.00
2018-03-23T05:20:12.531Z,0.00
2018-03-23T05:21:12.391Z,0.00
2018-03-23T05:22:12.253Z,0.00
2018-03-23T05:23:12.118Z,0.00
2018-03-23T05:24:11.985Z,0.00
2018-03-23T05:25:11.852Z,0.00
2018-03-23T05:26:11.719Z,5.63
2018-03-23T05:27:11.583Z,5.63
2018-03-23T05:28:11.452Z,5.63
2018-03-23T05:29:11.315Z,5.63
2018-03-23T05:30:11.183Z,5.63
2018-03-23T05:31:11.068Z,5.63
2018-03-23T05:32:10.928Z,5.63
2018-03-23T05:33:10.777Z,5.63
2018-03-23T05:34:10.643Z,5.63
2018-03-23T05:35:10.509Z,5.63
2018-03-23T05:36:10.376Z,5.63
2018-03-23T05:37:10.241Z,5.63
2018-03-23T05:38:10.109Z,5.63
2018-03-23T05:39:09.975Z,5.63
2018-03-23T05:40:09.839Z,11.25
2018-03-23T05:41:09.703Z,11.25
2018-03-23T05:42:09.570Z,11.25
2018-03-23T05:43:09.436Z,11.25
2018-03-23T05:44:09.302Z,11.25
2018-03-23T05:45:09.168Z,11.25
2018-03-23T05:46:09.060Z,11.25
2018-03-23T05:47:08.904Z,16.88
2018-03-23T05:48:08.765Z,16.88
2018-03-23T05:49:08.631Z,16.88
2018-03-23T05:50:08.507Z,16.88
2018-03-23T05:51:08.362Z,16.88
2018-03-23T05:52:08.231Z,22.50
2018-03-23T05:53:08.096Z,22.50
2018-03-23T05:54:07.959Z,22.50
2018-03-23T05:55:07.832Z,22.50
2018-03-23T05:56:07.693Z,28.13
2018-03-23T05:57:07.556Z,28.13
2018-03-23T05:58:07.422Z,28.13
2018-03-23T05:59:07.288Z,28.13
2018-03-23T06:00:07.152Z,33.75
2018-03-23T06:01:07.020Z,33.75
2018-03-23T06:02:06.885Z,33.75
2018-03-23T06:03:06.752Z,39.38
2018-03-23T06:04:06.617Z,39.38
2018-03-23T06:05:06.483Z,39.38
2018-03-23T06:06:06.349Z,45.00
2018-03-23T06:07:06.214Z,45.00
2018-03-23T06:08:06.083Z,45.00
2018-03-23T06:09:05.947Z,45.00
2018-03-23T06:10:05.812Z,45.00
2018-03-23T06:11:05.679Z,45.00
2018-03-23T06:12:05.543Z,45.00
2018-03-23T06:13:05.410Z,45.00
2018-03-23T06:14:05.275Z,45.00
2018-03-23T06:15:05.139Z,45.00
2018-03-23T06:16:05.008Z,50.63
2018-03-23T06:17:04.873Z,50.63
2018-03-23T06:18:04.739Z,50.63
2018-03-23T06:19:04.606Z,56.25
2018-03-23T06:20:04.474Z,56.25
2018-03-23T06:21:04.337Z,61.88
2018-03-23T06:22:04.203Z,61.88
2018-03-23T06:23:04.069Z,61.88
2018-03-23T06:24:03.936Z,61.88
2018-03-23T06:25:03.802Z,67.50
2018-03-23T06:26:03.667Z,73.13
2018-03-23T06:27:03.545Z,78.75
2018-03-23T06:28:03.452Z,84.38
2018-03-23T06:29:03.265Z,90.00
2018-03-23T06:30:03.130Z,90.00
2018-03-23T06:31:02.997Z,90.00
2018-03-23T06:32:02.867Z,90.00
2018-03-23T06:33:02.737Z,90.00
2018-03-23T06:34:02.594Z,90.00
2018-03-23T06:35:02.463Z,90.00
2018-03-23T06:36:02.335Z,95.63
2018-03-23T06:37:02.198Z,95.63
2018-03-23T06:38:02.064Z,95.63
2018-03-23T06:39:01.943Z,95.63
2018-03-23T06:40:01.802Z,95.63
2018-03-23T06:41:01.659Z,95.63
2018-03-23T06:42:01.524Z,95.63
2018-03-23T06:43:01.390Z,95.63
2018-03-23T06:44:01.257Z,101.25
2018-03-23T06:45:01.123Z,106.88
2018-03-23T06:46:00.988Z,118.13
2018-03-23T06:47:00.852Z,118.13
2018-03-23T06:48:00.724Z,118.13
2018-03-23T06:49:00.585Z,118.13
2018-03-23T06:50:00.449Z,118.13
2018-03-23T06:51:00.316Z,118.13
2018-03-23T06:52:00.186Z,118.13
2018-03-23T06:53:00.050Z,118.13
2018-03-23T06:53:59.913Z,123.75
2018-03-23T06:54:59.780Z,129.38
2018-03-23T06:55:59.648Z,129.38
2018-03-23T06:56:59.512Z,135.00
2018-03-23T06:57:59.381Z,140.63
2018-03-23T06:58:59.246Z,135.00
2018-03-23T06:59:59.111Z,129.38
2018-03-23T07:00:58.977Z,123.75
2018-03-23T07:01:58.847Z,118.13
2018-03-23T07:02:58.710Z,118.13
2018-03-23T07:03:58.582Z,118.13
2018-03-23T07:04:58.441Z,118.13
2018-03-23T07:05:58.309Z,123.75
2018-03-23T07:06:58.174Z,129.38
2018-03-23T07:07:58.041Z,135.00
2018-03-23T07:08:57.912Z,140.63
2018-03-23T07:09:57.771Z,146.25
2018-03-23T07:10:57.645Z,151.88
2018-03-23T07:11:57.510Z,157.50
2018-03-23T07:12:57.371Z,163.13
2018-03-23T07:13:57.236Z,174.38
2018-03-23T07:14:57.104Z,191.25
2018-03-23T07:15:56.974Z,196.88
2018-03-23T07:16:56.840Z,208.13
2018-03-23T07:17:56.703Z,213.75
2018-03-23T07:18:56.565Z,202.50
2018-03-23T07:19:56.433Z,196.88
2018-03-23T07:20:56.300Z,191.25
2018-03-23T07:21:56.199Z,191.25
2018-03-23T07:22:56.037Z,196.88
2018-03-23T07:23:55.900Z,202.50
2018-03-23T07:24:55.770Z,213.75
2018-03-23T07:25:55.632Z,213.75
2018-03-23T07:26:55.499Z,213.75
2018-03-23T07:27:55.364Z,208.13
2018-03-23T07:28:55.229Z,196.88
2018-03-23T07:29:55.097Z,196.88
2018-03-23T07:30:54.962Z,208.13
2018-03-23T07:31:54.830Z,213.75
2018-03-23T07:32:54.721Z,225.00
2018-03-23T07:33:54.564Z,225.00
2018-03-23T07:34:54.427Z,230.63
2018-03-23T07:35:54.297Z,230.63
2018-03-23T07:36:54.162Z,225.00
2018-03-23T07:37:54.028Z,225.00
2018-03-23T07:38:53.899Z,230.63
2018-03-23T07:39:53.765Z,236.25
2018-03-23T07:40:53.637Z,236.25
2018-03-23T07:41:53.496Z,230.63
2018-03-23T07:42:53.366Z,213.75
2018-03-23T07:43:53.232Z,202.50
2018-03-23T07:44:53.096Z,208.13
2018-03-23T07:45:52.963Z,202.50
2018-03-23T07:46:52.834Z,196.88
2018-03-23T07:47:52.701Z,196.88
2018-03-23T07:48:52.566Z,196.88
2018-03-23T07:49:52.433Z,202.50
2018-03-23T07:50:52.302Z,202.50
2018-03-23T07:51:52.222Z,196.88
2018-03-23T07:52:52.032Z,196.88
2018-03-23T07:53:51.898Z,196.88
2018-03-23T07:54:51.766Z,196.88
2018-03-23T07:55:51.634Z,208.13
2018-03-23T07:56:51.500Z,219.38
2018-03-23T07:57:51.372Z,225.00
2018-03-23T07:58:51.232Z,225.00
2018-03-23T07:59:51.103Z,225.00
2018-03-23T08:00:50.963Z,225.00
2018-03-23T08:01:50.832Z,225.00
2018-03-23T08:02:50.703Z,230.63
2018-03-23T08:03:50.566Z,253.13
2018-03-23T08:04:50.430Z,286.88
2018-03-23T08:05:50.300Z,286.88
2018-03-23T08:06:50.207Z,270.00
2018-03-23T08:07:50.034Z,264.38
2018-03-23T08:08:49.898Z,270.00
2018-03-23T08:09:49.784Z,270.00
2018-03-23T08:10:49.632Z,253.13
2018-03-23T08:11:49.498Z,247.50
2018-03-23T08:12:49.365Z,264.38
2018-03-23T08:13:49.230Z,264.38
2018-03-23T08:14:49.095Z,253.13
2018-03-23T08:15:48.964Z,253.13
2018-03-23T08:16:48.832Z,258.75
2018-03-23T08:17:48.698Z,253.13
2018-03-23T08:18:48.562Z,258.75
2018-03-23T08:19:48.431Z,258.75
2018-03-23T08:20:48.299Z,258.75
2018-03-23T08:21:48.163Z,264.38
2018-03-23T08:22:48.031Z,264.38
2018-03-23T08:23:47.897Z,258.75
2018-03-23T08:24:47.767Z,270.00
2018-03-23T08:25:47.630Z,286.88
2018-03-23T08:26:47.501Z,281.25
2018-03-23T08:27:47.370Z,286.88
2018-03-23T08:28:47.238Z,292.50
2018-03-23T08:29:47.099Z,286.88
2018-03-23T08:30:46.966Z,286.88
2018-03-23T08:31:46.833Z,298.13
2018-03-23T08:32:46.698Z,298.13
2018-03-23T08:33:46.565Z,298.13
2018-03-23T08:34:46.437Z,247.50
2018-03-23T08:35:46.308Z,253.13
2018-03-23T08:36:46.167Z,270.00
2018-03-23T08:37:46.043Z,264.38
2018-03-23T08:38:45.898Z,258.75
2018-03-23T08:39:45.768Z,275.63
2018-03-23T08:40:45.637Z,303.75
2018-03-23T08:41:45.556Z,298.13
2018-03-23T08:42:45.372Z,286.88
2018-03-23T08:43:45.237Z,298.13
2018-03-23T08:44:45.232Z,298.13
2018-03-23T08:45:44.978Z,303.75
2018-03-23T08:46:44.837Z,331.88
2018-03-23T08:47:44.708Z,348.75
2018-03-23T08:48:44.572Z,388.13
2018-03-23T08:49:44.440Z,551.25
2018-03-23T08:50:44.309Z,506.25
2018-03-23T08:51:44.173Z,461.25
2018-03-23T08:52:44.083Z,450.00
2018-03-23T08:53:43.912Z,433.13
2018-03-23T08:54:43.780Z,416.25
2018-03-23T08:55:43.649Z,410.63
2018-03-23T08:56:43.515Z,388.13
2018-03-23T08:57:43.382Z,450.00
2018-03-23T08:58:43.260Z,450.00
2018-03-23T08:59:43.120Z,500.63
2018-03-23T09:00:42.988Z,483.75
2018-03-23T09:01:42.859Z,438.75
2018-03-23T09:02:42.724Z,450.00
2018-03-23T09:03:42.594Z,455.63
2018-03-23T09:04:42.477Z,450.00
2018-03-23T09:05:42.331Z,461.25
2018-03-23T09:06:42.200Z,450.00
2018-03-23T09:07:42.071Z,455.63
2018-03-23T09:08:41.937Z,506.25
2018-03-23T09:09:41.836Z,523.13
2018-03-23T09:10:41.679Z,511.88
2018-03-23T09:11:41.546Z,495.00
2018-03-23T09:12:41.416Z,618.75
2018-03-23T09:13:41.288Z,613.13
2018-03-23T09:14:41.156Z,585.00
2018-03-23T09:15:41.025Z,433.13
2018-03-23T09:16:40.922Z,382.50
2018-03-23T09:17:40.767Z,354.38
2018-03-23T09:18:40.635Z,331.88
2018-03-23T09:19:40.510Z,343.13
2018-03-23T09:20:40.374Z,348.75
2018-03-23T09:21:40.252Z,360.00
2018-03-23T09:22:40.118Z,376.88
2018-03-23T09:23:39.988Z,371.25
2018-03-23T09:24:39.858Z,365.63
2018-03-23T09:25:39.725Z,360.00
2018-03-23T09:26:39.605Z,388.13
2018-03-23T09:27:39.469Z,421.88
2018-03-23T09:28:39.340Z,399.38
2018-03-23T09:29:39.215Z,393.75
2018-03-23T09:30:39.078Z,371.25
2018-03-23T09:31:38.950Z,360.00
2018-03-23T09:32:38.820Z,365.63
2018-03-23T09:33:38.688Z,354.38
2018-03-23T09:34:38.557Z,348.75
2018-03-23T09:35:38.429Z,348.75
2018-03-23T09:36:38.298Z,348.75
2018-03-23T09:37:38.170Z,337.50
2018-03-23T09:38:38.038Z,337.50
2018-03-23T09:39:37.907Z,337.50
2018-03-23T09:40:37.779Z,337.50
2018-03-23T09:41:37.648Z,331.88
2018-03-23T09:42:37.522Z,331.88
2018-03-23T09:43:37.387Z,337.50
2018-03-23T09:44:37.292Z,348.75
2018-03-23T09:45:37.128Z,371.25
2018-03-23T09:46:36.998Z,388.13
2018-03-23T09:47:36.868Z,382.50
2018-03-23T09:48:36.795Z,371.25
2018-03-23T09:49:36.607Z,365.63
2018-03-23T09:50:36.481Z,348.75
2018-03-23T09:51:36.347Z,331.88
2018-03-23T09:52:36.273Z,326.25
2018-03-23T09:53:36.089Z,315.00
2018-03-23T09:54:35.964Z,309.38
2018-03-23T09:55:35.833Z,286.88
2018-03-23T09:56:35.705Z,253.13
2018-03-23T09:57:35.571Z,230.63
2018-03-23T09:58:35.442Z,230.63
2018-03-23T09:59:35.309Z,247.50
2018-03-23T10:00:35.178Z,264.38
2018-03-23T10:01:35.051Z,309.38
2018-03-23T10:02:34.953Z,331.88
2018-03-23T10:03:34.790Z,343.13
2018-03-23T10:04:34.658Z,360.00
2018-03-23T10:05:34.529Z,382.50
2018-03-23T10:06:34.399Z,315.00
2018-03-23T10:07:34.274Z,326.25
2018-03-23T10:08:34.136Z,309.38
2018-03-23T10:09:34.007Z,303.75
2018-03-23T10:10:33.878Z,320.63
2018-03-23T10:11:33.746Z,331.88
2018-03-23T10:12:33.615Z,320.63
2018-03-23T10:13:33.484Z,309.38
2018-03-23T10:14:33.355Z,315.00
2018-03-23T10:15:33.226Z,320.63
2018-03-23T10:16:33.097Z,343.13
2018-03-23T10:17:32.964Z,348.75
2018-03-23T10:18:32.833Z,331.88
2018-03-23T10:19:32.703Z,326.25
2018-03-23T10:20:32.583Z,326.25
2018-03-23T10:21:32.441Z,343.13
2018-03-23T10:22:32.311Z,326.25
2018-03-23T10:23:32.189Z,315.00
2018-03-23T10:24:32.050Z,292.50
2018-03-23T10:25:31.919Z,281.25
2018-03-23T10:26:31.794Z,270.00
2018-03-23T10:27:31.658Z,230.63
2018-03-23T10:28:31.525Z,225.00
2018-03-23T10:29:31.398Z,241.88
2018-03-23T10:30:31.266Z,253.13
2018-03-23T10:31:31.142Z,275.63
2018-03-23T10:32:31.003Z,298.13
2018-03-23T10:33:30.886Z,320.63
2018-03-23T10:34:30.746Z,348.75
2018-03-23T10:35:30.659Z,354.38
2018-03-23T10:36:30.482Z,354.38
2018-03-23T10:37:30.354Z,348.75
2018-03-23T10:38:30.228Z,360.00
2018-03-23T10:39:30.094Z,337.50
2018-03-23T10:40:29.962Z,337.50
2018-03-23T10:41:29.837Z,337.50
2018-03-23T10:42:29.704Z,326.25
2018-03-23T10:43:29.572Z,320.63
2018-03-23T10:44:29.442Z,326.25
2018-03-23T10:45:29.310Z,337.50
2018-03-23T10:46:29.182Z,343.13
2018-03-23T10:47:29.054Z,343.13
2018-03-23T10:48:28.927Z,348.75
2018-03-23T10:49:28.792Z,348.75
2018-03-23T10:50:28.663Z,348.75
2018-03-23T10:51:28.532Z,348.75
2018-03-23T10:52:28.404Z,343.13
2018-03-23T10:53:28.332Z,337.50
2018-03-23T10:54:28.142Z,354.38
2018-03-23T10:55:28.013Z,365.63
2018-03-23T10:56:27.884Z,371.25
2018-03-23T10:57:27.764Z,376.88
2018-03-23T10:58:27.627Z,371.25
2018-03-23T10:59:27.497Z,365.63
2018-03-23T11:00:27.373Z,393.75
2018-03-23T11:01:27.240Z,433.13
2018-03-23T11:02:27.106Z,461.25
2018-03-23T11:03:26.990Z,455.63
2018-03-23T11:04:26.848Z,455.63
2018-03-23T11:05:26.720Z,455.63
2018-03-23T11:06:26.591Z,444.38
2018-03-23T11:07:26.460Z,444.38
2018-03-23T11:08:26.332Z,433.13
2018-03-23T11:09:26.202Z,421.88
2018-03-23T11:10:26.074Z,416.25
2018-03-23T11:11:25.950Z,416.25
2018-03-23T11:12:25.817Z,416.25
2018-03-23T11:13:25.689Z,399.38
2018-03-23T11:14:25.557Z,393.75
2018-03-23T11:15:25.428Z,410.63
2018-03-23T11:16:25.294Z,421.88
2018-03-23T11:17:25.167Z,438.75
2018-03-23T11:18:25.048Z,433.13
2018-03-23T11:19:24.906Z,427.50
2018-03-23T11:20:24.778Z,421.88
2018-03-23T11:21:24.652Z,416.25
2018-03-23T11:22:24.528Z,410.63
2018-03-23T11:23:24.390Z,421.88
2018-03-23T11:24:24.300Z,438.75
2018-03-23T11:25:24.130Z,444.38
2018-03-23T11:26:24.005Z,421.88
2018-03-23T11:27:23.873Z,427.50
2018-03-23T11:28:23.746Z,433.13
2018-03-23T11:29:23.615Z,433.13
2018-03-23T11:30:23.486Z,438.75
2018-03-23T11:31:23.358Z,444.38
2018-03-23T11:32:23.229Z,472.50
2018-03-23T11:33:23.100Z,523.13
2018-03-23T11:34:22.969Z,528.75
2018-03-23T11:35:22.842Z,523.13
2018-03-23T11:36:22.712Z,500.63
2018-03-23T11:37:22.584Z,489.38
2018-03-23T11:38:22.454Z,478.13
2018-03-23T11:39:22.326Z,495.00
2018-03-23T11:40:22.196Z,596.25
2018-03-23T11:41:22.070Z,596.25
2018-03-23T11:42:21.940Z,556.88
2018-03-23T11:43:21.814Z,506.25
2018-03-23T11:44:21.725Z,461.25
2018-03-23T11:45:21.557Z,455.63
2018-03-23T11:46:21.453Z,455.63
2018-03-23T11:47:21.302Z,478.13
2018-03-23T11:48:21.168Z,416.25
2018-03-23T11:49:21.041Z,405.00
2018-03-23T11:50:20.914Z,382.50
2018-03-23T11:51:20.786Z,405.00
2018-03-23T11:52:20.660Z,461.25
2018-03-23T11:53:20.530Z,416.25
2018-03-23T11:54:20.402Z,410.63
2018-03-23T11:55:20.273Z,450.00
2018-03-23T11:56:20.146Z,652.50
2018-03-23T11:57:20.180Z,534.38
2018-03-23T11:58:19.891Z,540.00
2018-03-23T11:59:19.759Z,523.13
2018-03-23T12:00:19.632Z,489.38
2018-03-23T12:01:19.505Z,450.00
2018-03-23T12:02:19.378Z,461.25
2018-03-23T12:03:19.248Z,596.25
2018-03-23T12:04:19.120Z,500.63
2018-03-23T12:05:18.990Z,472.50
2018-03-23T12:06:18.864Z,444.38
2018-03-23T12:07:18.736Z,489.38
2018-03-23T12:08:18.610Z,511.88
2018-03-23T12:09:18.480Z,601.88
2018-03-23T12:10:18.353Z,495.00
2018-03-23T12:11:18.226Z,500.63
2018-03-23T12:12:18.100Z,421.88
2018-03-23T12:13:17.975Z,405.00
2018-03-23T12:14:17.914Z,450.00
2018-03-23T12:15:17.720Z,500.63
2018-03-23T12:16:17.589Z,534.38
2018-03-23T12:17:17.464Z,466.88
2018-03-23T12:18:17.335Z,461.25
2018-03-23T12:19:17.210Z,478.13
2018-03-23T12:20:17.083Z,478.13
2018-03-23T12:21:16.961Z,466.88
2018-03-23T12:22:16.828Z,461.25
2018-03-23T12:23:16.701Z,461.25
2018-03-23T12:24:16.577Z,472.50
2018-03-23T12:25:16.448Z,472.50
2018-03-23T12:26:16.320Z,461.25
2018-03-23T12:27:16.195Z,455.63
2018-03-23T12:28:16.066Z,455.63
2018-03-23T12:29:15.937Z,421.88
2018-03-23T12:30:15.813Z,393.75
2018-03-23T12:31:15.685Z,388.13
2018-03-23T12:32:15.556Z,393.75
2018-03-23T12:33:15.429Z,416.25
2018-03-23T12:34:15.305Z,416.25
2018-03-23T12:35:15.181Z,416.25
2018-03-23T12:36:15.043Z,433.13
2018-03-23T12:37:14.920Z,427.50
2018-03-23T12:38:14.795Z,433.13
2018-03-23T12:39:14.666Z,421.88
2018-03-23T12:40:14.538Z,427.50
2018-03-23T12:41:14.409Z,416.25
2018-03-23T12:42:14.280Z,421.88
2018-03-23T12:43:14.152Z,416.25
2018-03-23T12:44:14.022Z,399.38
2018-03-23T12:45:13.898Z,416.25
2018-03-23T12:46:13.770Z,433.13
2018-03-23T12:47:13.641Z,433.13
2018-03-23T12:48:13.515Z,478.13
2018-03-23T12:49:13.387Z,590.63
2018-03-23T12:50:13.264Z,528.75